Time,TemperatureF,DewpointF,PressureIn,WindDirection,WindDirectionDegrees,WindSpeedMPH,WindSpeedGustMPH,Humidity,HourlyPrecipIn,Conditions,Clouds,dailyrainin,SoftwareType,DateUTC
2013-04-06 00:09:00,33.4,19.0,29.98,North,0,12.0,-999.0,57,-99.99,,,0.00,weatherlink.com 1.10,2013-04-06 04:09:00,
2013-04-06 00:24:00,33.2,19.0,29.98,North,358,16.0,-999.0,56,-99.99,,,0.00,weatherlink.com 1.10,2013-04-06 04:24:00,
2013-04-06 00:39:00,33.2,18.0,29.99,North,1,14.0,-999.0,54,-99.99,,,0.00,weatherlink.com 1.10,2013-04-06 04:39:00,
2013-04-06 01:09:00,32.8,18.0,30.00,North,358,5.0,-999.0,54,-99.99,,,0.00,weatherlink.com 1.10,2013-04-06 05:09:00,
2013-04-06 01:24:00,32.2,18.0,30.01,North,358,9.0,-999.0,56,-99.99,,,0.00,weatherlink.com 1.10,2013-04-06 05:24:00,
2013-04-06 01:39:00,31.8,17.0,30.02,NE,39,6.0,-999.0,55,-99.99,,,0.00,weatherlink.com 1.10,2013-04-06 05:39:00,
2013-04-06 01:54:00,31.6,17.0,30.02,NW,326,9.0,-999.0,54,-99.99,,,0.00,weatherlink.com 1.10,2013-04-06 05:54:00,
2013-04-06 02:09:00,31.5,16.0,30.03,North,358,9.0,-999.0,52,-99.99,,,0.00,weatherlink.com 1.10,2013-04-06 06:09:00,
2013-04-06 02:24:00,31.4,15.0,30.03,North,357,10.0,-999.0,51,-99.99,,,0.00,weatherlink.com 1.10,2013-04-06 06:24:00,
2013-04-06 02:39:00,30.8,16.0,30.04,North,4,17.0,-999.0,55,-99.99,,,0.00,weatherlink.com 1.10,2013-04-06 06:39:00,
2013-04-06 02:54:00,30.0,15.0,30.05,North,9,15.0,-999.0,55,-99.99,,,0.00,weatherlink.com 1.10,2013-04-06 06:54:00,
2013-04-06 03:09:00,29.7,16.0,30.06,NNE,31,15.0,-999.0,56,-99.99,,,0.00,weatherlink.com 1.10,2013-04-06 07:09:00,
2013-04-06 03:24:00,29.4,15.0,30.06,North,0,13.0,-999.0,56,-99.99,,,0.00,weatherlink.com 1.10,2013-04-06 07:24:00,
2013-04-06 03:39:00,28.7,17.0,30.07,North,352,14.0,-999.0,61,-99.99,,,0.00,weatherlink.com 1.10,2013-04-06 07:39:00,
2013-04-06 03:54:00,28.4,17.0,30.09,North,6,7.0,-999.0,62,-99.99,,,0.00,weatherlink.com 1.10,2013-04-06 07:54:00,
2013-04-06 04:09:00,28.2,17.0,30.09,North,359,16.0,-999.0,64,-99.99,,,0.00,weatherlink.com 1.10,2013-04-06 08:09:00,
2013-04-06 04:24:00,28.1,17.0,30.11,North,0,11.0,-999.0,64,-99.99,,,0.00,weatherlink.com 1.10,2013-04-06 08:24:00,
2013-04-06 04:40:00,28.0,17.0,30.12,NW,322,12.0,-999.0,63,-99.99,,,0.00,weatherlink.com 1.10,2013-04-06 08:40:00,
2013-04-06 04:55:00,27.8,16.0,30.14,North,0,10.0,-999.0,61,-99.99,,,0.00,weatherlink.com 1.10,2013-04-06 08:55:00,
2013-04-06 05:10:00,27.0,16.0,30.14,North,1,5.0,-999.0,63,-99.99,,,0.00,weatherlink.com 1.10,2013-04-06 09:10:00,
2013-04-06 05:25:00,26.5,16.0,30.15,North,359,10.0,-999.0,65,-99.99,,,0.00,weatherlink.com 1.10,2013-04-06 09:25:00,
2013-04-06 05:40:00,26.3,16.0,30.16,North,0,15.0,-999.0,66,-99.99,,,0.00,weatherlink.com 1.10,2013-04-06 09:40:00,
2013-04-06 05:55:00,26.2,16.0,30.17,North,359,18.0,-999.0,66,-99.99,,,0.00,weatherlink.com 1.10,2013-04-06 09:55:00,
2013-04-06 06:25:00,25.7,15.0,30.20,North,359,4.0,-999.0,65,-99.99,,,0.00,weatherlink.com 1.10,2013-04-06 10:25:00,
2013-04-06 06:40:00,25.7,15.0,30.21,North,0,11.0,-999.0,63,-99.99,,,0.00,weatherlink.com 1.10,2013-04-06 10:40:00,
2013-04-06 06:55:00,25.9,13.0,30.22,North,359,14.0,-999.0,59,-99.99,,,0.00,weatherlink.com 1.10,2013-04-06 10:55:00,
2013-04-06 07:10:00,26.3,12.0,30.24,North,1,9.0,-999.0,56,-99.99,,,0.00,weatherlink.com 1.10,2013-04-06 11:10:00,
2013-04-06 07:25:00,26.9,11.0,30.24,North,359,14.0,-999.0,52,-99.99,,,0.00,weatherlink.com 1.10,2013-04-06 11:25:00,
2013-04-06 07:40:00,27.2,11.0,30.25,North,0,7.0,-999.0,50,-99.99,,,0.00,weatherlink.com 1.10,2013-04-06 11:40:00,
2013-04-06 07:55:00,27.7,9.0,30.26,North,0,7.0,-999.0,46,-99.99,,,0.00,weatherlink.com 1.10,2013-04-06 11:55:00,
2013-04-06 08:10:00,27.9,8.0,30.27,NW,324,15.0,-999.0,44,-99.99,,,0.00,weatherlink.com 1.10,2013-04-06 12:10:00,
2013-04-06 08:25:00,28.1,8.0,30.27,North,5,9.0,-999.0,42,-99.99,,,0.00,weatherlink.com 1.10,2013-04-06 12:25:00,
2013-04-06 08:40:00,28.5,9.0,30.27,NNW,338,20.0,-999.0,44,-99.99,,,0.00,weatherlink.com 1.10,2013-04-06 12:40:00,
2013-04-06 08:55:00,28.9,8.0,30.27,NNW,340,22.0,-999.0,41,-99.99,,,0.00,weatherlink.com 1.10,2013-04-06 12:55:00,
2013-04-06 09:10:00,29.3,9.0,30.27,North,1,15.0,-999.0,43,-99.99,,,0.00,weatherlink.com 1.10,2013-04-06 13:10:00,
2013-04-06 09:25:00,29.7,9.0,30.27,North,0,12.0,-999.0,42,-99.99,,,0.00,weatherlink.com 1.10,2013-04-06 13:25:00,
2013-04-06 09:40:00,30.1,8.0,30.27,North,351,21.0,-999.0,40,-99.99,,,0.00,weatherlink.com 1.10,2013-04-06 13:40:00,
2013-04-06 09:55:00,30.6,8.0,30.28,North,1,12.0,-999.0,39,-99.99,,,0.00,weatherlink.com 1.10,2013-04-06 13:55:00,
2013-04-06 10:10:00,31.0,9.0,30.28,NNW,343,15.0,-999.0,39,-99.99,,,0.00,weatherlink.com 1.10,2013-04-06 14:10:00,
2013-04-06 10:25:00,32.1,11.0,30.29,NNW,338,10.0,-999.0,42,-99.99,,,0.00,weatherlink.com 1.10,2013-04-06 14:25:00,
2013-04-06 10:40:00,32.0,9.0,30.30,North,6,8.0,-999.0,39,-99.99,,,0.00,weatherlink.com 1.10,2013-04-06 14:40:00,
2013-04-06 10:55:00,33.2,10.0,30.30,North,0,13.0,-999.0,38,-99.99,,,0.00,weatherlink.com 1.10,2013-04-06 14:55:00,
2013-04-06 11:10:00,32.3,9.0,30.30,NNE,19,13.0,-999.0,38,-99.99,,,0.00,weatherlink.com 1.10,2013-04-06 15:10:00,
2013-04-06 11:25:00,33.3,9.0,30.30,North,349,4.0,-999.0,36,-99.99,,,0.00,weatherlink.com 1.10,2013-04-06 15:25:00,
2013-04-06 11:40:00,33.8,11.0,30.30,North,1,12.0,-999.0,38,-99.99,,,0.00,weatherlink.com 1.10,2013-04-06 15:40:00,
2013-04-06 11:55:00,34.4,9.0,30.30,NE,35,13.0,-999.0,35,-99.99,,,0.00,weatherlink.com 1.10,2013-04-06 15:55:00,
2013-04-06 12:10:00,34.3,9.0,30.30,NW,325,4.0,-999.0,35,-99.99,,,0.00,weatherlink.com 1.10,2013-04-06 16:10:00,
2013-04-06 12:25:00,34.9,11.0,30.30,NNE,13,10.0,-999.0,37,-99.99,,,0.00,weatherlink.com 1.10,2013-04-06 16:25:00,
2013-04-06 12:40:00,35.1,9.0,30.30,North,358,5.0,-999.0,33,-99.99,,,0.00,weatherlink.com 1.10,2013-04-06 16:40:00,
2013-04-06 12:55:00,36.1,10.0,30.29,North,11,12.0,-999.0,34,-99.99,,,0.00,weatherlink.com 1.10,2013-04-06 16:55:00,
2013-04-06 13:11:00,36.6,12.0,30.29,NE,51,6.0,-999.0,36,-99.99,,,0.00,weatherlink.com 1.10,2013-04-06 17:11:00,
2013-04-06 13:25:00,37.4,11.0,30.29,North,1,3.0,-999.0,34,-99.99,,,0.00,weatherlink.com 1.10,2013-04-06 17:25:00,
2013-04-06 13:40:00,37.5,10.0,30.28,ENE,72,4.0,-999.0,32,-99.99,,,0.00,weatherlink.com 1.10,2013-04-06 17:40:00,
2013-04-06 13:55:00,38.6,13.0,30.28,North,358,14.0,-999.0,35,-99.99,,,0.00,weatherlink.com 1.10,2013-04-06 17:55:00,
2013-04-06 14:10:00,38.3,10.0,30.28,NNE,32,5.0,-999.0,31,-99.99,,,0.00,weatherlink.com 1.10,2013-04-06 18:10:00,
2013-04-06 14:25:00,38.8,10.0,30.27,NNW,342,8.0,-999.0,31,-99.99,,,0.00,weatherlink.com 1.10,2013-04-06 18:25:00,
2013-04-06 14:40:00,39.2,11.0,30.27,NNE,13,11.0,-999.0,31,-99.99,,,0.00,weatherlink.com 1.10,2013-04-06 18:40:00,
2013-04-06 14:56:00,39.6,10.0,30.27,North,358,7.0,-999.0,30,-99.99,,,0.00,weatherlink.com 1.10,2013-04-06 18:56:00,
2013-04-06 15:11:00,40.0,11.0,30.27,NNE,27,7.0,-999.0,30,-99.99,,,0.00,weatherlink.com 1.10,2013-04-06 19:11:00,
2013-04-06 15:26:00,40.2,10.0,30.27,WNW,292,3.0,-999.0,29,-99.99,,,0.00,weatherlink.com 1.10,2013-04-06 19:26:00,
2013-04-06 15:41:00,40.8,11.0,30.26,WSW,250,2.0,-999.0,30,-99.99,,,0.00,weatherlink.com 1.10,2013-04-06 19:41:00,
2013-04-06 15:56:00,41.1,11.0,30.25,North,0,2.0,-999.0,29,-99.99,,,0.00,weatherlink.com 1.10,2013-04-06 19:56:00,
2013-04-06 16:11:00,42.0,11.0,30.25,NNW,330,3.0,-999.0,28,-99.99,,,0.00,weatherlink.com 1.10,2013-04-06 20:11:00,
2013-04-06 16:26:00,42.3,10.0,30.25,NNE,15,2.0,-999.0,27,-99.99,,,0.00,weatherlink.com 1.10,2013-04-06 20:26:00,
2013-04-06 16:56:00,42.8,11.0,30.26,NE,47,5.0,-999.0,27,-99.99,,,0.00,weatherlink.com 1.10,2013-04-06 20:56:00,
2013-04-06 17:11:00,42.5,11.0,30.26,NNE,30,3.0,-999.0,28,-99.99,,,0.00,weatherlink.com 1.10,2013-04-06 21:11:00,
2013-04-06 17:26:00,42.6,11.0,30.27,NNE,32,5.0,-999.0,28,-99.99,,,0.00,weatherlink.com 1.10,2013-04-06 21:26:00,
2013-04-06 17:41:00,42.3,11.0,30.27,NNE,18,6.0,-999.0,28,-99.99,,,0.00,weatherlink.com 1.10,2013-04-06 21:41:00,
2013-04-06 18:11:00,42.6,11.0,30.27,NE,56,0.0,-999.0,27,-99.99,,,0.00,weatherlink.com 1.10,2013-04-06 22:11:00,
2013-04-06 18:41:00,41.2,10.0,30.27,NE,56,3.0,-999.0,28,-99.99,,,0.00,weatherlink.com 1.10,2013-04-06 22:41:00,
2013-04-06 19:26:00,37.9,12.0,30.27,ENE,66,0.0,-999.0,34,-99.99,,,0.00,weatherlink.com 1.10,2013-04-06 23:26:00,
2013-04-06 19:56:00,34.8,14.0,30.27,ENE,66,0.0,-999.0,43,-99.99,,,0.00,weatherlink.com 1.10,2013-04-06 23:56:00,
2013-04-06 20:26:00,32.6,14.0,30.27,ENE,66,0.0,-999.0,46,-99.99,,,0.00,weatherlink.com 1.10,2013-04-07 00:26:00,
2013-04-06 20:41:00,31.6,12.0,30.28,ENE,66,0.0,-999.0,44,-99.99,,,0.00,weatherlink.com 1.10,2013-04-07 00:41:00,
2013-04-06 20:56:00,31.0,13.0,30.29,ENE,66,2.0,-999.0,48,-99.99,,,0.00,weatherlink.com 1.10,2013-04-07 00:56:00,
2013-04-06 21:11:00,29.9,15.0,30.30,ENE,66,0.0,-999.0,54,-99.99,,,0.00,weatherlink.com 1.10,2013-04-07 01:11:00,
2013-04-06 21:26:00,28.8,15.0,30.30,ENE,66,0.0,-999.0,57,-99.99,,,0.00,weatherlink.com 1.10,2013-04-07 01:26:00,
2013-04-06 21:41:00,29.6,14.0,30.30,ENE,66,0.0,-999.0,52,-99.99,,,0.00,weatherlink.com 1.10,2013-04-07 01:41:00,
2013-04-06 21:56:00,29.1,15.0,30.30,ENE,66,0.0,-999.0,56,-99.99,,,0.00,weatherlink.com 1.10,2013-04-07 01:56:00,
2013-04-06 22:11:00,28.4,16.0,30.30,ENE,66,0.0,-999.0,59,-99.99,,,0.00,weatherlink.com 1.10,2013-04-07 02:11:00,
2013-04-06 22:26:00,28.6,13.0,30.30,ENE,66,0.0,-999.0,52,-99.99,,,0.00,weatherlink.com 1.10,2013-04-07 02:26:00,
2013-04-06 22:41:00,30.1,18.0,30.29,ENE,66,0.0,-999.0,61,-99.99,,,0.00,weatherlink.com 1.10,2013-04-07 02:41:00,
2013-04-06 22:56:00,31.0,18.0,30.29,ENE,66,1.0,-999.0,58,-99.99,,,0.00,weatherlink.com 1.10,2013-04-07 02:56:00,
2013-04-06 23:11:00,31.0,21.0,30.29,SW,229,2.0,-999.0,67,-99.99,,,0.00,weatherlink.com 1.10,2013-04-07 03:11:00,
2013-04-06 23:26:00,32.1,16.0,30.28,SE,146,3.0,-999.0,51,-99.99,,,0.00,weatherlink.com 1.10,2013-04-07 03:26:00,
2013-04-06 23:41:00,33.6,15.0,30.27,SSW,194,2.0,-999.0,47,-99.99,,,0.00,weatherlink.com 1.10,2013-04-07 03:41:00,
2013-04-06 23:56:00,34.6,15.0,30.27,SSE,150,3.0,-999.0,45,-99.99,,,0.00,weatherlink.com 1.10,2013-04-07 03:56:00,